sensor_id;sensor_type;location;lat;lon;timestamp;P1;durP1;ratioP1;P2;durP2;ratioP2
26223;SDS011;14820;48.682;8.890;2023-02-28T00:00:25;7.38;;;3.15;;
26223;SDS011;14820;48.682;8.890;2023-02-28T00:02:51;7.22;;;3.85;;
26223;SDS011;14820;48.682;8.890;2023-02-28T00:05:17;9.63;;;2.78;;
26223;SDS011;14820;48.682;8.890;2023-02-28T00:07:45;7.28;;;3.80;;
26223;SDS011;14820;48.682;8.890;2023-02-28T00:10:17;5.90;;;3.03;;
26223;SDS011;14820;48.682;8.890;2023-02-28T00:12:45;6.35;;;2.95;;
26223;SDS011;14820;48.682;8.890;2023-02-28T00:15:15;5.75;;;2.70;;
26223;SDS011;14820;48.682;8.890;2023-02-28T00:17:42;7.90;;;2.97;;
26223;SDS011;14820;48.682;8.890;2023-02-28T00:20:08;4.57;;;2.65;;
26223;SDS011;14820;48.682;8.890;2023-02-28T00:22:40;5.70;;;2.92;;
26223;SDS011;14820;48.682;8.890;2023-02-28T00:25:12;4.82;;;2.60;;
26223;SDS011;14820;48.682;8.890;2023-02-28T00:27:40;5.43;;;3.10;;
26223;SDS011;14820;48.682;8.890;2023-02-28T00:30:06;5.40;;;2.85;;
26223;SDS011;14820;48.682;8.890;2023-02-28T00:32:34;3.85;;;2.63;;
26223;SDS011;14820;48.682;8.890;2023-02-28T00:35:00;5.97;;;2.80;;
26223;SDS011;14820;48.682;8.890;2023-02-28T00:37:27;6.03;;;2.97;;
26223;SDS011;14820;48.682;8.890;2023-02-28T00:39:53;4.05;;;2.78;;
26223;SDS011;14820;48.682;8.890;2023-02-28T00:42:18;4.75;;;2.90;;
26223;SDS011;14820;48.682;8.890;2023-02-28T00:44:44;5.20;;;2.50;;
26223;SDS011;14820;48.682;8.890;2023-02-28T00:47:10;7.90;;;2.83;;
26223;SDS011;14820;48.682;8.890;2023-02-28T00:49:35;5.15;;;2.75;;
26223;SDS011;14820;48.682;8.890;2023-02-28T00:52:01;7.38;;;2.80;;
26223;SDS011;14820;48.682;8.890;2023-02-28T00:54:27;5.53;;;2.42;;
26223;SDS011;14820;48.682;8.890;2023-02-28T00:56:53;5.47;;;2.72;;
26223;SDS011;14820;48.682;8.890;2023-02-28T00:59:19;5.50;;;2.83;;
26223;SDS011;14820;48.682;8.890;2023-02-28T01:01:45;6.15;;;2.67;;
26223;SDS011;14820;48.682;8.890;2023-02-28T01:04:12;4.65;;;3.10;;
26223;SDS011;14820;48.682;8.890;2023-02-28T01:06:38;4.68;;;2.90;;
26223;SDS011;14820;48.682;8.890;2023-02-28T01:09:04;7.55;;;2.95;;
26223;SDS011;14820;48.682;8.890;2023-02-28T01:11:31;4.40;;;2.80;;
26223;SDS011;14820;48.682;8.890;2023-02-28T01:13:57;6.88;;;3.13;;
26223;SDS011;14820;48.682;8.890;2023-02-28T01:16:23;5.07;;;2.80;;
26223;SDS011;14820;48.682;8.890;2023-02-28T01:18:49;5.38;;;2.70;;
26223;SDS011;14820;48.682;8.890;2023-02-28T01:21:16;5.75;;;2.70;;
26223;SDS011;14820;48.682;8.890;2023-02-28T01:23:42;4.88;;;3.10;;
26223;SDS011;14820;48.682;8.890;2023-02-28T01:26:10;5.75;;;2.72;;
26223;SDS011;14820;48.682;8.890;2023-02-28T01:31:09;5.45;;;2.80;;
26223;SDS011;14820;48.682;8.890;2023-02-28T01:33:35;7.80;;;2.80;;
26223;SDS011;14820;48.682;8.890;2023-02-28T01:36:03;4.32;;;2.60;;
26223;SDS011;14820;48.682;8.890;2023-02-28T01:38:30;5.03;;;2.88;;
26223;SDS011;14820;48.682;8.890;2023-02-28T01:40:57;7.90;;;3.03;;
26223;SDS011;14820;48.682;8.890;2023-02-28T01:43:23;7.47;;;2.97;;
26223;SDS011;14820;48.682;8.890;2023-02-28T01:45:52;7.95;;;3.22;;
26223;SDS011;14820;48.682;8.890;2023-02-28T01:48:20;5.22;;;3.05;;
26223;SDS011;14820;48.682;8.890;2023-02-28T01:50:51;5.13;;;2.92;;
26223;SDS011;14820;48.682;8.890;2023-02-28T01:53:19;7.57;;;3.00;;
26223;SDS011;14820;48.682;8.890;2023-02-28T01:55:50;6.45;;;3.08;;
26223;SDS011;14820;48.682;8.890;2023-02-28T01:58:18;7.38;;;3.08;;
26223;SDS011;14820;48.682;8.890;2023-02-28T02:00:44;5.63;;;3.22;;
26223;SDS011;14820;48.682;8.890;2023-02-28T02:03:10;11.20;;;3.30;;
26223;SDS011;14820;48.682;8.890;2023-02-28T02:05:39;7.22;;;2.90;;
26223;SDS011;14820;48.682;8.890;2023-02-28T02:08:10;7.07;;;2.72;;
26223;SDS011;14820;48.682;8.890;2023-02-28T02:10:45;7.18;;;3.60;;
26223;SDS011;14820;48.682;8.890;2023-02-28T02:21:13;6.60;;;3.00;;
26223;SDS011;14820;48.682;8.890;2023-02-28T02:26:47;5.68;;;3.20;;
26223;SDS011;14820;48.682;8.890;2023-02-28T02:32:12;7.50;;;3.40;;
26223;SDS011;14820;48.682;8.890;2023-02-28T02:35:00;6.35;;;3.33;;
26223;SDS011;14820;48.682;8.890;2023-02-28T02:37:38;6.53;;;3.45;;
26223;SDS011;14820;48.682;8.890;2023-02-28T02:40:35;5.70;;;3.05;;
26223;SDS011;14820;48.682;8.890;2023-02-28T02:43:34;6.82;;;3.67;;
26223;SDS011;14820;48.682;8.890;2023-02-28T02:46:10;6.57;;;3.28;;
26223;SDS011;14820;48.682;8.890;2023-02-28T02:48:44;4.43;;;2.92;;
26223;SDS011;14820;48.682;8.890;2023-02-28T02:51:13;7.22;;;3.95;;
26223;SDS011;14820;48.682;8.890;2023-02-28T02:53:44;5.43;;;3.63;;
26223;SDS011;14820;48.682;8.890;2023-02-28T02:56:19;8.10;;;3.80;;
26223;SDS011;14820;48.682;8.890;2023-02-28T02:58:48;8.20;;;3.55;;
26223;SDS011;14820;48.682;8.890;2023-02-28T03:01:20;7.75;;;3.80;;
26223;SDS011;14820;48.682;8.890;2023-02-28T03:03:57;6.63;;;3.72;;
26223;SDS011;14820;48.682;8.890;2023-02-28T03:06:26;5.88;;;3.85;;
26223;SDS011;14820;48.682;8.890;2023-02-28T03:08:52;7.55;;;4.10;;
26223;SDS011;14820;48.682;8.890;2023-02-28T03:11:18;7.53;;;3.95;;
26223;SDS011;14820;48.682;8.890;2023-02-28T03:13:49;7.55;;;4.45;;
26223;SDS011;14820;48.682;8.890;2023-02-28T03:16:28;6.32;;;3.40;;
26223;SDS011;14820;48.682;8.890;2023-02-28T03:26:45;6.00;;;3.67;;
26223;SDS011;14820;48.682;8.890;2023-02-28T03:29:39;8.73;;;4.40;;
26223;SDS011;14820;48.682;8.890;2023-02-28T03:34:58;5.80;;;3.85;;
26223;SDS011;14820;48.682;8.890;2023-02-28T03:37:31;8.00;;;4.10;;
26223;SDS011;14820;48.682;8.890;2023-02-28T03:40:04;5.55;;;3.50;;
26223;SDS011;14820;48.682;8.890;2023-02-28T03:42:37;6.68;;;4.15;;
26223;SDS011;14820;48.682;8.890;2023-02-28T03:45:11;6.15;;;4.25;;
26223;SDS011;14820;48.682;8.890;2023-02-28T03:50:24;7.15;;;4.07;;
26223;SDS011;14820;48.682;8.890;2023-02-28T03:53:07;13.43;;;4.05;;
26223;SDS011;14820;48.682;8.890;2023-02-28T03:55:41;7.32;;;4.18;;
26223;SDS011;14820;48.682;8.890;2023-02-28T03:58:27;7.72;;;4.40;;
26223;SDS011;14820;48.682;8.890;2023-02-28T04:00:59;8.05;;;4.30;;
26223;SDS011;14820;48.682;8.890;2023-02-28T04:03:34;9.23;;;4.25;;
26223;SDS011;14820;48.682;8.890;2023-02-28T04:06:01;8.45;;;4.60;;
26223;SDS011;14820;48.682;8.890;2023-02-28T04:08:27;7.82;;;4.10;;
26223;SDS011;14820;48.682;8.890;2023-02-28T04:10:55;8.50;;;4.57;;
26223;SDS011;14820;48.682;8.890;2023-02-28T04:13:26;8.35;;;5.07;;
26223;SDS011;14820;48.682;8.890;2023-02-28T04:15:52;7.30;;;4.43;;
26223;SDS011;14820;48.682;8.890;2023-02-28T04:18:17;8.18;;;4.60;;
26223;SDS011;14820;48.682;8.890;2023-02-28T04:20:43;6.15;;;4.38;;
26223;SDS011;14820;48.682;8.890;2023-02-28T04:23:08;13.23;;;4.70;;
26223;SDS011;14820;48.682;8.890;2023-02-28T04:25:34;8.65;;;4.22;;
26223;SDS011;14820;48.682;8.890;2023-02-28T04:28:00;7.85;;;4.47;;
26223;SDS011;14820;48.682;8.890;2023-02-28T04:30:25;6.80;;;4.18;;
26223;SDS011;14820;48.682;8.890;2023-02-28T04:32:51;11.25;;;4.60;;
26223;SDS011;14820;48.682;8.890;2023-02-28T04:35:17;8.70;;;4.78;;
26223;SDS011;14820;48.682;8.890;2023-02-28T04:37:42;8.73;;;4.93;;
26223;SDS011;14820;48.682;8.890;2023-02-28T04:40:08;8.32;;;4.78;;
26223;SDS011;14820;48.682;8.890;2023-02-28T04:42:34;8.90;;;4.85;;
26223;SDS011;14820;48.682;8.890;2023-02-28T04:45:03;8.75;;;5.32;;
26223;SDS011;14820;48.682;8.890;2023-02-28T04:47:30;8.77;;;5.50;;
26223;SDS011;14820;48.682;8.890;2023-02-28T04:49:55;11.57;;;6.22;;
26223;SDS011;14820;48.682;8.890;2023-02-28T04:52:21;8.65;;;5.53;;
26223;SDS011;14820;48.682;8.890;2023-02-28T04:54:47;12.38;;;5.78;;
26223;SDS011;14820;48.682;8.890;2023-02-28T04:57:12;7.55;;;4.90;;
26223;SDS011;14820;48.682;8.890;2023-02-28T04:59:39;10.77;;;5.07;;
26223;SDS011;14820;48.682;8.890;2023-02-28T05:02:04;8.40;;;5.45;;
26223;SDS011;14820;48.682;8.890;2023-02-28T05:04:32;11.57;;;5.82;;
26223;SDS011;14820;48.682;8.890;2023-02-28T05:06:59;10.00;;;5.75;;
26223;SDS011;14820;48.682;8.890;2023-02-28T05:09:25;14.23;;;5.60;;
26223;SDS011;14820;48.682;8.890;2023-02-28T05:11:51;9.05;;;4.80;;
26223;SDS011;14820;48.682;8.890;2023-02-28T05:14:17;7.95;;;4.72;;
26223;SDS011;14820;48.682;8.890;2023-02-28T05:16:42;9.15;;;5.20;;
26223;SDS011;14820;48.682;8.890;2023-02-28T05:19:08;10.07;;;5.32;;
26223;SDS011;14820;48.682;8.890;2023-02-28T05:22:10;10.27;;;5.35;;
26223;SDS011;14820;48.682;8.890;2023-02-28T05:24:25;10.70;;;5.60;;
26223;SDS011;14820;48.682;8.890;2023-02-28T05:26:52;8.30;;;5.55;;
26223;SDS011;14820;48.682;8.890;2023-02-28T05:29:19;8.52;;;5.05;;
26223;SDS011;14820;48.682;8.890;2023-02-28T05:31:44;12.35;;;5.38;;
26223;SDS011;14820;48.682;8.890;2023-02-28T05:34:10;10.57;;;5.18;;
26223;SDS011;14820;48.682;8.890;2023-02-28T05:36:37;7.53;;;4.88;;
26223;SDS011;14820;48.682;8.890;2023-02-28T05:39:05;7.55;;;4.97;;
26223;SDS011;14820;48.682;8.890;2023-02-28T05:41:32;9.18;;;4.70;;
26223;SDS011;14820;48.682;8.890;2023-02-28T05:43:58;8.32;;;5.10;;
26223;SDS011;14820;48.682;8.890;2023-02-28T05:46:24;9.80;;;5.43;;
26223;SDS011;14820;48.682;8.890;2023-02-28T05:48:50;9.60;;;5.47;;
26223;SDS011;14820;48.682;8.890;2023-02-28T05:51:16;9.55;;;5.22;;
26223;SDS011;14820;48.682;8.890;2023-02-28T05:53:42;7.20;;;5.00;;
26223;SDS011;14820;48.682;8.890;2023-02-28T05:56:08;10.85;;;5.80;;
26223;SDS011;14820;48.682;8.890;2023-02-28T05:58:34;10.27;;;5.68;;
26223;SDS011;14820;48.682;8.890;2023-02-28T06:01:00;6.72;;;4.90;;
26223;SDS011;14820;48.682;8.890;2023-02-28T06:03:44;10.70;;;5.55;;
26223;SDS011;14820;48.682;8.890;2023-02-28T06:06:09;7.60;;;5.20;;
26223;SDS011;14820;48.682;8.890;2023-02-28T06:08:35;9.27;;;5.75;;
26223;SDS011;14820;48.682;8.890;2023-02-28T06:11:04;11.38;;;5.78;;
26223;SDS011;14820;48.682;8.890;2023-02-28T06:13:29;8.07;;;5.65;;
26223;SDS011;14820;48.682;8.890;2023-02-28T06:15:55;8.45;;;5.43;;
26223;SDS011;14820;48.682;8.890;2023-02-28T06:18:21;9.43;;;5.53;;
26223;SDS011;14820;48.682;8.890;2023-02-28T06:20:53;10.60;;;5.82;;
26223;SDS011;14820;48.682;8.890;2023-02-28T06:23:20;11.30;;;5.60;;
26223;SDS011;14820;48.682;8.890;2023-02-28T06:25:46;12.00;;;6.00;;
26223;SDS011;14820;48.682;8.890;2023-02-28T06:28:12;11.40;;;6.30;;
26223;SDS011;14820;48.682;8.890;2023-02-28T06:30:38;9.55;;;5.53;;
26223;SDS011;14820;48.682;8.890;2023-02-28T06:33:04;9.95;;;6.07;;
26223;SDS011;14820;48.682;8.890;2023-02-28T06:35:29;10.88;;;5.72;;
26223;SDS011;14820;48.682;8.890;2023-02-28T06:37:55;12.05;;;5.82;;
26223;SDS011;14820;48.682;8.890;2023-02-28T06:40:21;10.35;;;6.20;;
26223;SDS011;14820;48.682;8.890;2023-02-28T06:42:47;11.15;;;6.78;;
26223;SDS011;14820;48.682;8.890;2023-02-28T06:45:12;9.55;;;5.85;;
26223;SDS011;14820;48.682;8.890;2023-02-28T06:47:39;10.43;;;5.70;;
26223;SDS011;14820;48.682;8.890;2023-02-28T06:50:06;11.02;;;6.65;;
26223;SDS011;14820;48.682;8.890;2023-02-28T06:52:34;9.23;;;5.75;;
26223;SDS011;14820;48.682;8.890;2023-02-28T06:55:02;11.40;;;6.65;;
26223;SDS011;14820;48.682;8.890;2023-02-28T06:57:32;11.10;;;6.28;;
26223;SDS011;14820;48.682;8.890;2023-02-28T06:59:59;11.75;;;6.45;;
26223;SDS011;14820;48.682;8.890;2023-02-28T07:02:26;11.07;;;5.90;;
26223;SDS011;14820;48.682;8.890;2023-02-28T07:04:52;12.65;;;6.57;;
26223;SDS011;14820;48.682;8.890;2023-02-28T07:07:18;10.82;;;6.30;;
26223;SDS011;14820;48.682;8.890;2023-02-28T07:09:43;9.13;;;5.88;;
26223;SDS011;14820;48.682;8.890;2023-02-28T07:12:09;10.40;;;6.47;;
26223;SDS011;14820;48.682;8.890;2023-02-28T07:14:36;11.00;;;6.25;;
26223;SDS011;14820;48.682;8.890;2023-02-28T07:17:01;14.90;;;6.72;;
26223;SDS011;14820;48.682;8.890;2023-02-28T07:19:27;11.88;;;6.32;;
26223;SDS011;14820;48.682;8.890;2023-02-28T07:21:53;12.50;;;6.72;;
26223;SDS011;14820;48.682;8.890;2023-02-28T07:24:18;10.65;;;6.65;;
26223;SDS011;14820;48.682;8.890;2023-02-28T07:26:44;13.73;;;6.82;;
26223;SDS011;14820;48.682;8.890;2023-02-28T07:29:10;17.15;;;6.82;;
26223;SDS011;14820;48.682;8.890;2023-02-28T07:31:36;13.63;;;6.50;;
26223;SDS011;14820;48.682;8.890;2023-02-28T07:34:01;13.00;;;6.55;;
26223;SDS011;14820;48.682;8.890;2023-02-28T07:36:28;13.80;;;7.00;;
26223;SDS011;14820;48.682;8.890;2023-02-28T07:38:53;15.48;;;6.50;;
26223;SDS011;14820;48.682;8.890;2023-02-28T07:41:20;12.65;;;6.97;;
26223;SDS011;14820;48.682;8.890;2023-02-28T07:43:47;12.95;;;7.05;;
26223;SDS011;14820;48.682;8.890;2023-02-28T07:46:14;12.43;;;7.15;;
26223;SDS011;14820;48.682;8.890;2023-02-28T07:48:41;11.00;;;6.25;;
26223;SDS011;14820;48.682;8.890;2023-02-28T07:51:07;12.40;;;7.20;;
26223;SDS011;14820;48.682;8.890;2023-02-28T07:53:33;12.65;;;7.00;;
26223;SDS011;14820;48.682;8.890;2023-02-28T07:55:59;13.77;;;7.13;;
26223;SDS011;14820;48.682;8.890;2023-02-28T07:58:27;15.48;;;7.50;;
26223;SDS011;14820;48.682;8.890;2023-02-28T08:00:53;12.15;;;7.10;;
26223;SDS011;14820;48.682;8.890;2023-02-28T08:03:20;11.25;;;7.40;;
26223;SDS011;14820;48.682;8.890;2023-02-28T08:05:47;16.13;;;7.57;;
26223;SDS011;14820;48.682;8.890;2023-02-28T08:08:14;12.70;;;7.80;;
26223;SDS011;14820;48.682;8.890;2023-02-28T08:10:40;16.10;;;7.68;;
26223;SDS011;14820;48.682;8.890;2023-02-28T08:13:06;14.73;;;7.30;;
26223;SDS011;14820;48.682;8.890;2023-02-28T08:15:32;12.50;;;7.80;;
26223;SDS011;14820;48.682;8.890;2023-02-28T08:17:57;13.95;;;7.63;;
26223;SDS011;14820;48.682;8.890;2023-02-28T08:20:24;15.63;;;7.70;;
26223;SDS011;14820;48.682;8.890;2023-02-28T08:22:50;14.55;;;7.78;;
26223;SDS011;14820;48.682;8.890;2023-02-28T08:25:16;13.10;;;8.02;;
26223;SDS011;14820;48.682;8.890;2023-02-28T08:27:42;10.48;;;7.22;;
26223;SDS011;14820;48.682;8.890;2023-02-28T08:30:09;16.63;;;8.07;;
26223;SDS011;14820;48.682;8.890;2023-02-28T08:32:36;13.90;;;8.15;;
26223;SDS011;14820;48.682;8.890;2023-02-28T08:35:03;14.85;;;8.63;;
26223;SDS011;14820;48.682;8.890;2023-02-28T08:37:29;12.35;;;7.68;;
26223;SDS011;14820;48.682;8.890;2023-02-28T08:39:54;14.48;;;7.78;;
26223;SDS011;14820;48.682;8.890;2023-02-28T08:42:20;14.40;;;8.55;;
26223;SDS011;14820;48.682;8.890;2023-02-28T08:44:46;14.93;;;8.30;;
26223;SDS011;14820;48.682;8.890;2023-02-28T08:47:11;14.60;;;8.13;;
26223;SDS011;14820;48.682;8.890;2023-02-28T08:49:37;14.00;;;7.93;;
26223;SDS011;14820;48.682;8.890;2023-02-28T08:52:03;15.13;;;8.70;;
26223;SDS011;14820;48.682;8.890;2023-02-28T08:54:29;17.40;;;9.30;;
26223;SDS011;14820;48.682;8.890;2023-02-28T08:56:56;17.55;;;8.75;;
26223;SDS011;14820;48.682;8.890;2023-02-28T08:59:22;15.88;;;9.38;;
26223;SDS011;14820;48.682;8.890;2023-02-28T09:01:47;17.38;;;8.68;;
26223;SDS011;14820;48.682;8.890;2023-02-28T09:04:13;11.60;;;8.13;;
26223;SDS011;14820;48.682;8.890;2023-02-28T09:06:39;17.80;;;9.15;;
26223;SDS011;14820;48.682;8.890;2023-02-28T09:09:05;14.90;;;8.30;;
26223;SDS011;14820;48.682;8.890;2023-02-28T09:11:32;14.75;;;8.35;;
26223;SDS011;14820;48.682;8.890;2023-02-28T09:13:59;15.88;;;8.43;;
26223;SDS011;14820;48.682;8.890;2023-02-28T09:16:25;17.95;;;9.13;;
26223;SDS011;14820;48.682;8.890;2023-02-28T09:18:51;18.65;;;9.27;;
26223;SDS011;14820;48.682;8.890;2023-02-28T09:21:18;13.90;;;9.05;;
26223;SDS011;14820;48.682;8.890;2023-02-28T09:23:44;17.25;;;9.05;;
26223;SDS011;14820;48.682;8.890;2023-02-28T09:26:13;16.50;;;9.27;;
26223;SDS011;14820;48.682;8.890;2023-02-28T09:28:44;13.25;;;8.35;;
26223;SDS011;14820;48.682;8.890;2023-02-28T09:31:11;16.05;;;9.25;;
26223;SDS011;14820;48.682;8.890;2023-02-28T09:33:39;21.20;;;10.43;;
26223;SDS011;14820;48.682;8.890;2023-02-28T09:36:06;16.27;;;10.45;;
26223;SDS011;14820;48.682;8.890;2023-02-28T09:38:32;14.95;;;8.68;;
26223;SDS011;14820;48.682;8.890;2023-02-28T09:41:00;14.93;;;8.38;;
26223;SDS011;14820;48.682;8.890;2023-02-28T09:43:34;17.85;;;9.90;;
26223;SDS011;14820;48.682;8.890;2023-02-28T09:46:37;16.48;;;8.93;;
26223;SDS011;14820;48.682;8.890;2023-02-28T09:48:54;16.95;;;9.52;;
26223;SDS011;14820;48.682;8.890;2023-02-28T09:51:27;18.08;;;9.70;;
26223;SDS011;14820;48.682;8.890;2023-02-28T09:53:53;16.33;;;9.32;;
26223;SDS011;14820;48.682;8.890;2023-02-28T09:56:24;15.55;;;8.73;;
26223;SDS011;14820;48.682;8.890;2023-02-28T09:58:54;14.10;;;9.30;;
26223;SDS011;14820;48.682;8.890;2023-02-28T10:01:23;13.75;;;8.95;;
26223;SDS011;14820;48.682;8.890;2023-02-28T10:06:26;15.73;;;8.65;;
26223;SDS011;14820;48.682;8.890;2023-02-28T10:09:00;19.40;;;9.43;;
26223;SDS011;14820;48.682;8.890;2023-02-28T10:11:29;14.18;;;8.73;;
26223;SDS011;14820;48.682;8.890;2023-02-28T10:16:40;15.23;;;9.90;;
26223;SDS011;14820;48.682;8.890;2023-02-28T10:21:57;15.55;;;9.65;;
26223;SDS011;14820;48.682;8.890;2023-02-28T10:24:28;19.42;;;10.60;;
26223;SDS011;14820;48.682;8.890;2023-02-28T10:27:21;16.63;;;10.05;;
26223;SDS011;14820;48.682;8.890;2023-02-28T10:29:58;16.15;;;9.95;;
26223;SDS011;14820;48.682;8.890;2023-02-28T10:32:26;17.38;;;9.80;;
26223;SDS011;14820;48.682;8.890;2023-02-28T10:37:40;14.45;;;9.52;;
26223;SDS011;14820;48.682;8.890;2023-02-28T10:40:31;17.55;;;10.45;;
26223;SDS011;14820;48.682;8.890;2023-02-28T10:42:59;19.45;;;10.40;;
26223;SDS011;14820;48.682;8.890;2023-02-28T10:45:26;18.55;;;10.30;;
26223;SDS011;14820;48.682;8.890;2023-02-28T10:50:28;16.27;;;10.10;;
26223;SDS011;14820;48.682;8.890;2023-02-28T10:58:57;17.80;;;9.68;;
26223;SDS011;14820;48.682;8.890;2023-02-28T11:06:51;20.42;;;9.77;;
26223;SDS011;14820;48.682;8.890;2023-02-28T11:09:30;20.80;;;9.68;;
26223;SDS011;14820;48.682;8.890;2023-02-28T11:12:04;15.20;;;9.60;;
26223;SDS011;14820;48.682;8.890;2023-02-28T11:14:35;14.68;;;9.60;;
26223;SDS011;14820;48.682;8.890;2023-02-28T11:17:22;17.90;;;10.38;;
26223;SDS011;14820;48.682;8.890;2023-02-28T11:19:51;17.40;;;9.55;;
26223;SDS011;14820;48.682;8.890;2023-02-28T11:22:21;18.30;;;9.30;;
26223;SDS011;14820;48.682;8.890;2023-02-28T11:24:52;19.35;;;10.10;;
26223;SDS011;14820;48.682;8.890;2023-02-28T11:29:54;17.93;;;10.43;;
26223;SDS011;14820;48.682;8.890;2023-02-28T11:32:21;15.98;;;9.85;;
26223;SDS011;14820;48.682;8.890;2023-02-28T11:37:35;15.15;;;9.10;;
26223;SDS011;14820;48.682;8.890;2023-02-28T11:40:02;16.50;;;9.57;;
26223;SDS011;14820;48.682;8.890;2023-02-28T11:48:04;18.83;;;9.65;;
26223;SDS011;14820;48.682;8.890;2023-02-28T11:50:52;15.07;;;9.23;;
26223;SDS011;14820;48.682;8.890;2023-02-28T11:54:18;17.48;;;9.75;;
26223;SDS011;14820;48.682;8.890;2023-02-28T12:04:52;17.65;;;9.32;;
26223;SDS011;14820;48.682;8.890;2023-02-28T12:12:54;15.63;;;9.68;;
26223;SDS011;14820;48.682;8.890;2023-02-28T12:26:47;17.27;;;10.32;;
26223;SDS011;14820;48.682;8.890;2023-02-28T12:29:20;18.95;;;10.25;;
26223;SDS011;14820;48.682;8.890;2023-02-28T12:37:13;14.05;;;9.48;;
26223;SDS011;14820;48.682;8.890;2023-02-28T12:39:47;13.25;;;9.18;;
26223;SDS011;14820;48.682;8.890;2023-02-28T12:42:28;12.38;;;8.45;;
26223;SDS011;14820;48.682;8.890;2023-02-28T12:44:58;14.93;;;9.25;;
26223;SDS011;14820;48.682;8.890;2023-02-28T12:47:26;13.98;;;9.02;;
26223;SDS011;14820;48.682;8.890;2023-02-28T12:49:53;17.35;;;9.80;;
26223;SDS011;14820;48.682;8.890;2023-02-28T12:55:15;17.00;;;9.85;;
26223;SDS011;14820;48.682;8.890;2023-02-28T12:57:53;17.17;;;10.85;;
26223;SDS011;14820;48.682;8.890;2023-02-28T13:00:22;18.63;;;11.48;;
26223;SDS011;14820;48.682;8.890;2023-02-28T13:10:47;16.73;;;9.45;;
26223;SDS011;14820;48.682;8.890;2023-02-28T13:13:21;13.97;;;9.03;;
26223;SDS011;14820;48.682;8.890;2023-02-28T13:16:09;14.88;;;9.02;;
26223;SDS011;14820;48.682;8.890;2023-02-28T13:18:36;14.90;;;8.93;;
26223;SDS011;14820;48.682;8.890;2023-02-28T13:21:22;14.85;;;8.55;;
26223;SDS011;14820;48.682;8.890;2023-02-28T13:29:35;14.95;;;9.15;;
26223;SDS011;14820;48.682;8.890;2023-02-28T13:34:34;14.32;;;8.90;;
26223;SDS011;14820;48.682;8.890;2023-02-28T13:38:02;13.73;;;8.88;;
26223;SDS011;14820;48.682;8.890;2023-02-28T13:47:41;15.35;;;8.90;;
26223;SDS011;14820;48.682;8.890;2023-02-28T13:58:31;11.60;;;8.25;;
26223;SDS011;14820;48.682;8.890;2023-02-28T14:07:02;14.23;;;8.15;;
26223;SDS011;14820;48.682;8.890;2023-02-28T14:09:30;14.68;;;8.65;;
26223;SDS011;14820;48.682;8.890;2023-02-28T14:17:57;12.85;;;8.77;;
26223;SDS011;14820;48.682;8.890;2023-02-28T14:20:26;14.20;;;8.63;;
26223;SDS011;14820;48.682;8.890;2023-02-28T14:23:04;17.85;;;11.32;;
26223;SDS011;14820;48.682;8.890;2023-02-28T14:26:00;14.77;;;9.00;;
26223;SDS011;14820;48.682;8.890;2023-02-28T14:28:56;12.48;;;7.90;;
26223;SDS011;14820;48.682;8.890;2023-02-28T14:31:39;12.90;;;7.80;;
26223;SDS011;14820;48.682;8.890;2023-02-28T14:34:21;12.93;;;8.93;;
26223;SDS011;14820;48.682;8.890;2023-02-28T14:37:15;13.82;;;9.32;;
26223;SDS011;14820;48.682;8.890;2023-02-28T14:42:31;11.88;;;8.02;;
26223;SDS011;14820;48.682;8.890;2023-02-28T14:44:59;12.20;;;8.48;;
26223;SDS011;14820;48.682;8.890;2023-02-28T14:47:27;14.55;;;8.40;;
26223;SDS011;14820;48.682;8.890;2023-02-28T14:49:56;13.32;;;8.35;;
26223;SDS011;14820;48.682;8.890;2023-02-28T14:52:24;15.10;;;9.10;;
26223;SDS011;14820;48.682;8.890;2023-02-28T14:55:04;12.45;;;8.55;;
26223;SDS011;14820;48.682;8.890;2023-02-28T14:57:40;12.60;;;8.18;;
26223;SDS011;14820;48.682;8.890;2023-02-28T15:02:49;13.00;;;8.45;;
26223;SDS011;14820;48.682;8.890;2023-02-28T15:07:44;12.63;;;8.50;;
26223;SDS011;14820;48.682;8.890;2023-02-28T15:10:20;12.40;;;7.95;;
26223;SDS011;14820;48.682;8.890;2023-02-28T15:12:53;13.13;;;7.80;;
26223;SDS011;14820;48.682;8.890;2023-02-28T15:15:21;13.02;;;8.57;;
26223;SDS011;14820;48.682;8.890;2023-02-28T15:17:54;13.68;;;7.82;;
26223;SDS011;14820;48.682;8.890;2023-02-28T15:20:23;13.38;;;7.90;;
26223;SDS011;14820;48.682;8.890;2023-02-28T15:22:49;12.88;;;8.25;;
26223;SDS011;14820;48.682;8.890;2023-02-28T15:25:21;11.43;;;7.75;;
26223;SDS011;14820;48.682;8.890;2023-02-28T15:27:52;13.95;;;8.43;;
26223;SDS011;14820;48.682;8.890;2023-02-28T15:30:29;14.00;;;8.25;;
26223;SDS011;14820;48.682;8.890;2023-02-28T15:35:45;14.13;;;8.15;;
26223;SDS011;14820;48.682;8.890;2023-02-28T15:38:23;11.45;;;7.95;;
26223;SDS011;14820;48.682;8.890;2023-02-28T15:40:54;14.13;;;8.50;;
26223;SDS011;14820;48.682;8.890;2023-02-28T15:43:29;11.73;;;8.40;;
26223;SDS011;14820;48.682;8.890;2023-02-28T15:46:09;15.50;;;9.10;;
26223;SDS011;14820;48.682;8.890;2023-02-28T15:48:52;14.35;;;8.20;;
26223;SDS011;14820;48.682;8.890;2023-02-28T15:51:29;14.82;;;8.63;;
26223;SDS011;14820;48.682;8.890;2023-02-28T15:54:04;10.90;;;8.13;;
26223;SDS011;14820;48.682;8.890;2023-02-28T15:56:33;11.93;;;7.97;;
26223;SDS011;14820;48.682;8.890;2023-02-28T15:59:07;11.27;;;8.15;;
26223;SDS011;14820;48.682;8.890;2023-02-28T16:01:38;16.00;;;8.20;;
26223;SDS011;14820;48.682;8.890;2023-02-28T16:04:06;12.45;;;8.52;;
26223;SDS011;14820;48.682;8.890;2023-02-28T16:06:40;12.73;;;8.32;;
26223;SDS011;14820;48.682;8.890;2023-02-28T16:09:11;13.02;;;8.88;;
26223;SDS011;14820;48.682;8.890;2023-02-28T16:11:40;15.15;;;8.77;;
26223;SDS011;14820;48.682;8.890;2023-02-28T16:14:14;13.75;;;8.45;;
26223;SDS011;14820;48.682;8.890;2023-02-28T16:16:44;13.27;;;8.30;;
26223;SDS011;14820;48.682;8.890;2023-02-28T16:19:13;14.98;;;8.50;;
26223;SDS011;14820;48.682;8.890;2023-02-28T16:21:38;12.73;;;8.55;;
26223;SDS011;14820;48.682;8.890;2023-02-28T16:24:04;13.10;;;8.10;;
26223;SDS011;14820;48.682;8.890;2023-02-28T16:26:30;11.32;;;8.00;;
26223;SDS011;14820;48.682;8.890;2023-02-28T16:28:59;13.02;;;8.45;;
26223;SDS011;14820;48.682;8.890;2023-02-28T16:31:26;13.90;;;8.52;;
26223;SDS011;14820;48.682;8.890;2023-02-28T16:33:52;14.45;;;9.23;;
26223;SDS011;14820;48.682;8.890;2023-02-28T16:36:22;13.88;;;8.93;;
26223;SDS011;14820;48.682;8.890;2023-02-28T16:38:53;13.88;;;9.45;;
26223;SDS011;14820;48.682;8.890;2023-02-28T16:41:20;16.55;;;9.07;;
26223;SDS011;14820;48.682;8.890;2023-02-28T16:43:50;15.50;;;8.55;;
26223;SDS011;14820;48.682;8.890;2023-02-28T16:46:18;17.52;;;8.52;;
26223;SDS011;14820;48.682;8.890;2023-02-28T16:48:45;12.77;;;7.93;;
26223;SDS011;14820;48.682;8.890;2023-02-28T16:51:16;11.38;;;8.40;;
26223;SDS011;14820;48.682;8.890;2023-02-28T16:53:42;12.40;;;8.20;;
26223;SDS011;14820;48.682;8.890;2023-02-28T16:56:19;10.98;;;8.10;;
26223;SDS011;14820;48.682;8.890;2023-02-28T16:58:47;12.73;;;7.97;;
26223;SDS011;14820;48.682;8.890;2023-02-28T17:01:15;13.60;;;8.60;;
26223;SDS011;14820;48.682;8.890;2023-02-28T17:03:41;12.77;;;8.25;;
26223;SDS011;14820;48.682;8.890;2023-02-28T17:06:17;13.88;;;9.65;;
26223;SDS011;14820;48.682;8.890;2023-02-28T17:08:46;13.60;;;8.52;;
26223;SDS011;14820;48.682;8.890;2023-02-28T17:11:13;15.02;;;9.27;;
26223;SDS011;14820;48.682;8.890;2023-02-28T17:13:39;16.55;;;9.60;;
26223;SDS011;14820;48.682;8.890;2023-02-28T17:16:04;16.15;;;9.43;;
26223;SDS011;14820;48.682;8.890;2023-02-28T17:18:30;14.43;;;8.77;;
26223;SDS011;14820;48.682;8.890;2023-02-28T17:20:59;15.02;;;8.98;;
26223;SDS011;14820;48.682;8.890;2023-02-28T17:23:25;13.32;;;8.63;;
26223;SDS011;14820;48.682;8.890;2023-02-28T17:25:51;13.93;;;9.05;;